Time;durP1;ratioP1;P1;durP2;ratioP2;P2;SDS_P1;SDS_P2;PMS_P1;PMS_P2;Temp;Humidity;BMP_temperature;BMP_pressure;BME280_temperature;BME280_humidity;BME280_pressure;Samples;Min_cycle;Max_cycle;Signal;HPM_P1;HPM_P2
2024/01/30 00:01:05;;;;;;;27.20;11.02;;;2.70;99.90;;;;;;5019388;28;20025;-69
2024/01/30 00:03:30;;;;;;;22.77;9.73;;;2.70;99.90;;;;;;5019201;28;20018;-70
2024/01/30 00:05:56;;;;;;;24.02;10.73;;;2.70;99.90;;;;;;5018701;28;20026;-70
2024/01/30 00:08:22;;;;;;;24.58;10.50;;;2.70;99.90;;;;;;5019521;28;20029;-70
2024/01/30 00:10:47;;;;;;;22.30;9.95;;;2.70;99.90;;;;;;5019069;28;20034;-70
2024/01/30 00:13:13;;;;;;;20.73;9.90;;;2.80;99.90;;;;;;5019394;28;20026;-69
2024/01/30 00:15:39;;;;;;;22.65;10.05;;;2.80;99.90;;;;;;5018509;28;20030;-69
2024/01/30 00:18:05;;;;;;;21.67;9.40;;;2.80;99.90;;;;;;5019574;28;20026;-69
2024/01/30 00:20:30;;;;;;;24.42;10.18;;;2.80;99.90;;;;;;5018453;28;20119;-70
2024/01/30 00:22:56;;;;;;;21.45;9.75;;;2.90;99.90;;;;;;5018489;28;20033;-70
2024/01/30 00:25:21;;;;;;;16.65;8.95;;;2.90;99.90;;;;;;5018656;28;20026;-69
2024/01/30 00:27:47;;;;;;;18.92;9.80;;;2.80;99.90;;;;;;5018290;28;20036;-69
2024/01/30 00:30:12;;;;;;;18.95;9.20;;;2.80;99.90;;;;;;5018265;28;20033;-69
2024/01/30 00:32:38;;;;;;;20.48;10.23;;;2.70;99.90;;;;;;5018020;28;20026;-69
2024/01/30 00:35:04;;;;;;;17.77;9.20;;;2.60;99.90;;;;;;5018981;28;20033;-69
2024/01/30 00:37:31;;;;;;;22.88;9.60;;;2.60;99.90;;;;;;5018261;28;20081;-70
2024/01/30 00:39:57;;;;;;;20.40;9.38;;;2.60;99.90;;;;;;5018936;28;20022;-70
2024/01/30 00:42:23;;;;;;;19.52;9.15;;;2.60;99.90;;;;;;5018423;28;20032;-69
2024/01/30 00:44:49;;;;;;;23.23;10.50;;;2.60;99.90;;;;;;5018347;28;20029;-69
2024/01/30 00:47:14;;;;;;;22.77;10.30;;;2.60;99.90;;;;;;5018750;28;20026;-69
2024/01/30 00:49:40;;;;;;;20.88;9.00;;;2.50;99.90;;;;;;5018313;28;20032;-69
2024/01/30 00:52:06;;;;;;;21.90;10.10;;;2.50;99.90;;;;;;5017902;28;20055;-69
2024/01/30 00:54:31;;;;;;;18.85;9.95;;;2.40;99.90;;;;;;5018629;28;20026;-70
2024/01/30 00:56:57;;;;;;;22.02;10.85;;;2.40;99.90;;;;;;5018097;28;20030;-69
2024/01/30 00:59:22;;;;;;;23.95;11.30;;;2.30;99.90;;;;;;5018276;28;20018;-69
2024/01/30 01:01:48;;;;;;;25.85;10.00;;;2.40;99.90;;;;;;5018278;28;20021;-69
2024/01/30 01:04:13;;;;;;;22.55;9.55;;;2.40;99.90;;;;;;5018458;28;20014;-69
2024/01/30 01:06:39;;;;;;;25.15;10.30;;;2.40;99.90;;;;;;5017683;28;20087;-69
2024/01/30 01:09:05;;;;;;;22.23;9.55;;;2.40;99.90;;;;;;5018565;28;20049;-69
2024/01/30 01:11:31;;;;;;;19.27;10.55;;;2.40;99.90;;;;;;5017524;28;20080;-69
2024/01/30 01:13:56;;;;;;;22.27;10.52;;;2.40;99.90;;;;;;5017471;28;20022;-70
2024/01/30 01:16:22;;;;;;;23.95;10.20;;;2.40;99.90;;;;;;5018269;28;20034;-69
2024/01/30 01:18:47;;;;;;;20.73;10.32;;;2.30;99.90;;;;;;5018099;28;20032;-69
2024/01/30 01:21:13;;;;;;;22.45;10.02;;;2.40;99.90;;;;;;5018564;28;20033;-69
2024/01/30 01:23:38;;;;;;;21.73;10.00;;;2.30;99.90;;;;;;5017220;28;20022;-69
2024/01/30 01:26:05;;;;;;;24.45;9.45;;;2.30;99.90;;;;;;5018532;28;20029;-69
2024/01/30 01:28:31;;;;;;;18.30;9.50;;;2.30;99.90;;;;;;5018250;28;20018;-69
2024/01/30 01:30:59;;;;;;;24.35;10.05;;;2.30;99.90;;;;;;5017046;28;20029;-70
2024/01/30 01:33:24;;;;;;;26.23;10.27;;;2.20;99.90;;;;;;5018112;28;20037;-69
2024/01/30 01:35:50;;;;;;;21.73;9.32;;;2.20;99.90;;;;;;5017888;28;20026;-69
2024/01/30 01:38:15;;;;;;;25.75;10.43;;;2.20;99.90;;;;;;5017372;28;20022;-69
2024/01/30 01:40:41;;;;;;;21.65;10.45;;;2.20;99.90;;;;;;5017352;28;20025;-70
2024/01/30 01:43:06;;;;;;;23.85;9.98;;;2.20;99.90;;;;;;5017964;28;20022;-69
2024/01/30 01:45:32;;;;;;;27.45;10.68;;;2.20;99.90;;;;;;5016846;28;20030;-69
2024/01/30 01:47:58;;;;;;;26.25;10.27;;;2.20;99.90;;;;;;5016950;28;20033;-69
2024/01/30 01:50:24;;;;;;;21.63;9.73;;;2.20;99.90;;;;;;5016660;28;20021;-69
2024/01/30 01:52:50;;;;;;;26.27;10.50;;;2.20;99.90;;;;;;5017905;28;20129;-69
2024/01/30 01:55:21;;;;;;;20.10;9.45;;;2.20;99.90;;;;;;5017582;28;20025;-69
2024/01/30 01:57:47;;;;;;;21.45;9.35;;;2.20;99.90;;;;;;5017794;28;20022;-69
2024/01/30 02:00:13;;;;;;;18.85;10.15;;;2.20;99.90;;;;;;5017685;28;20040;-70
2024/01/30 02:02:39;;;;;;;21.35;9.95;;;2.20;99.90;;;;;;5016585;28;20018;-69
2024/01/30 02:05:05;;;;;;;21.27;9.75;;;2.10;99.90;;;;;;5016943;28;20037;-69
2024/01/30 02:07:31;;;;;;;23.15;9.93;;;2.00;99.90;;;;;;5017563;28;20030;-69
2024/01/30 02:09:56;;;;;;;22.42;10.65;;;2.10;99.90;;;;;;5016832;28;20120;-69
2024/01/30 02:12:22;;;;;;;25.50;10.93;;;2.00;99.90;;;;;;5016998;28;20026;-69
2024/01/30 02:14:48;;;;;;;23.83;10.75;;;1.80;99.90;;;;;;5016700;28;20030;-69
2024/01/30 02:17:15;;;;;;;18.75;9.73;;;1.90;99.90;;;;;;5016851;28;20022;-69
2024/01/30 02:19:41;;;;;;;24.33;10.38;;;2.00;99.90;;;;;;5016419;28;20028;-69
2024/01/30 02:22:07;;;;;;;24.67;9.88;;;2.00;99.90;;;;;;5016568;28;20105;-69
2024/01/30 02:24:33;;;;;;;19.80;9.45;;;2.00;99.90;;;;;;5016389;28;20026;-69
2024/01/30 02:26:58;;;;;;;19.35;10.43;;;2.10;99.90;;;;;;5016387;28;20088;-69
2024/01/30 02:29:24;;;;;;;22.85;10.85;;;2.00;99.90;;;;;;5016537;28;20029;-69
2024/01/30 02:31:50;;;;;;;25.25;9.57;;;2.00;99.90;;;;;;5016359;28;20108;-69
2024/01/30 02:34:15;;;;;;;17.83;9.55;;;2.10;99.90;;;;;;5016128;28;20052;-69
2024/01/30 02:36:44;;;;;;;21.92;9.98;;;2.10;99.90;;;;;;5016363;28;20025;-69
2024/01/30 02:39:10;;;;;;;24.67;9.60;;;2.10;99.90;;;;;;5016230;28;20092;-69
2024/01/30 02:41:36;;;;;;;27.65;11.60;;;2.00;99.90;;;;;;5016228;28;20030;-69
2024/01/30 02:44:03;;;;;;;21.10;8.88;;;1.90;99.90;;;;;;5016257;28;20027;-69
2024/01/30 02:46:29;;;;;;;23.23;10.88;;;1.90;99.90;;;;;;5017247;28;20018;-69
2024/01/30 02:48:54;;;;;;;19.08;9.07;;;1.80;99.90;;;;;;5016102;28;20022;-69
2024/01/30 02:51:20;;;;;;;20.63;9.55;;;1.70;99.90;;;;;;5017005;28;20034;-69
2024/01/30 02:53:45;;;;;;;21.17;10.70;;;1.70;99.90;;;;;;5016100;28;20025;-69
2024/01/30 02:56:13;;;;;;;20.08;9.00;;;1.70;99.90;;;;;;5017449;28;20030;-69
2024/01/30 02:58:39;;;;;;;17.98;9.07;;;1.70;99.90;;;;;;5016402;28;20022;-69
2024/01/30 03:01:05;;;;;;;19.77;8.98;;;1.70;99.90;;;;;;5016905;28;20083;-69
2024/01/30 03:03:31;;;;;;;21.27;9.52;;;1.70;99.90;;;;;;5017244;28;20049;-69
2024/01/30 03:05:56;;;;;;;18.13;9.55;;;1.60;99.90;;;;;;5020720;28;20068;-69
2024/01/30 03:08:22;;;;;;;22.13;9.88;;;1.70;99.90;;;;;;5020737;28;20038;-69
2024/01/30 03:10:48;;;;;;;17.33;8.35;;;1.70;99.90;;;;;;5020430;28;20034;-69
2024/01/30 03:13:14;;;;;;;18.13;9.25;;;1.80;99.90;;;;;;5019586;28;20057;-69
2024/01/30 03:15:39;;;;;;;20.15;9.52;;;1.80;99.90;;;;;;5020762;28;20053;-69
2024/01/30 03:18:05;;;;;;;15.07;8.40;;;1.80;99.90;;;;;;5019683;28;20033;-69
2024/01/30 03:20:31;;;;;;;22.40;9.60;;;1.80;99.90;;;;;;5019470;28;20029;-69
2024/01/30 03:22:57;;;;;;;24.05;8.57;;;1.80;99.90;;;;;;5019609;28;20015;-69
2024/01/30 03:25:22;;;;;;;19.65;8.93;;;1.80;99.90;;;;;;5019529;28;20032;-69
2024/01/30 03:27:48;;;;;;;24.17;9.63;;;1.80;99.90;;;;;;5020200;28;20143;-69
2024/01/30 03:30:14;;;;;;;23.98;8.88;;;1.80;99.90;;;;;;5019938;28;20029;-69
2024/01/30 03:32:40;;;;;;;18.60;8.77;;;1.80;99.90;;;;;;5019756;28;20029;-69
2024/01/30 03:35:06;;;;;;;18.20;8.15;;;1.80;99.90;;;;;;5020151;28;20102;-69
2024/01/30 03:37:31;;;;;;;17.15;8.52;;;1.70;99.90;;;;;;5019299;28;20099;-69
2024/01/30 03:39:57;;;;;;;16.77;8.45;;;1.60;99.90;;;;;;5019466;28;20081;-69
2024/01/30 03:42:22;;;;;;;17.80;7.82;;;1.60;99.90;;;;;;5019576;28;20018;-69
2024/01/30 03:44:48;;;;;;;17.52;7.68;;;1.60;99.90;;;;;;5020172;28;20026;-69
2024/01/30 03:47:14;;;;;;;15.77;8.07;;;1.60;99.90;;;;;;5019256;28;20030;-69
2024/01/30 03:49:40;;;;;;;17.65;8.65;;;1.60;99.90;;;;;;5019238;28;20033;-69
2024/01/30 03:52:05;;;;;;;15.60;8.25;;;1.60;99.90;;;;;;5018900;28;20056;-69
2024/01/30 03:54:31;;;;;;;15.10;7.80;;;1.50;99.90;;;;;;5019908;28;20030;-69
2024/01/30 03:56:56;;;;;;;18.02;7.88;;;1.50;99.90;;;;;;5019847;28;20034;-69
2024/01/30 03:59:23;;;;;;;16.60;8.23;;;1.50;99.90;;;;;;5018905;28;20022;-69
2024/01/30 04:01:51;;;;;;;15.50;8.15;;;1.50;99.90;;;;;;5019115;28;20018;-69
2024/01/30 04:04:17;;;;;;;17.67;8.45;;;1.50;99.90;;;;;;5019807;28;20041;-69
2024/01/30 04:06:43;;;;;;;14.70;7.97;;;1.50;99.90;;;;;;5019148;28;20018;-69
2024/01/30 04:09:09;;;;;;;19.90;8.63;;;1.50;99.90;;;;;;5019000;28;20026;-69
2024/01/30 04:11:34;;;;;;;14.65;8.02;;;1.60;99.90;;;;;;5018901;28;20045;-69
2024/01/30 04:14:00;;;;;;;24.52;8.52;;;1.60;99.90;;;;;;5018703;28;20037;-69
2024/01/30 04:16:25;;;;;;;18.60;8.52;;;1.60;99.90;;;;;;5019445;28;20030;-69
2024/01/30 04:18:52;;;;;;;21.45;9.32;;;1.70;99.90;;;;;;5018793;28;20026;-69
2024/01/30 04:21:17;;;;;;;21.02;9.95;;;1.70;99.90;;;;;;5019312;28;20028;-69
2024/01/30 04:23:43;;;;;;;23.23;8.95;;;1.80;99.90;;;;;;5018472;28;20090;-69
2024/01/30 04:26:08;;;;;;;22.05;9.90;;;1.80;99.90;;;;;;5019567;28;20026;-69
2024/01/30 04:28:34;;;;;;;19.92;8.98;;;1.80;99.90;;;;;;5018679;28;20026;-69
2024/01/30 04:30:59;;;;;;;18.20;8.98;;;1.80;99.90;;;;;;5018534;28;20125;-69
2024/01/30 04:33:25;;;;;;;20.23;9.55;;;1.70;99.90;;;;;;5019577;28;20026;-69
2024/01/30 04:35:51;;;;;;;21.75;9.63;;;1.60;99.90;;;;;;5018139;28;20033;-69
2024/01/30 04:38:17;;;;;;;16.48;9.30;;;1.60;99.90;;;;;;5018983;28;20025;-69
2024/01/30 04:40:43;;;;;;;19.13;8.55;;;1.60;99.90;;;;;;5018971;28;20026;-69
2024/01/30 04:43:08;;;;;;;18.02;8.57;;;1.50;99.90;;;;;;5018151;28;20053;-69
2024/01/30 04:45:34;;;;;;;23.23;8.95;;;1.50;99.90;;;;;;5018216;28;20053;-69
2024/01/30 04:47:59;;;;;;;24.13;9.68;;;1.50;99.90;;;;;;5017981;28;20032;-69
2024/01/30 04:50:26;;;;;;;17.05;8.98;;;1.40;99.90;;;;;;5017995;28;20030;-69
2024/01/30 04:52:52;;;;;;;21.02;9.07;;;1.40;99.90;;;;;;5019153;28;20030;-69
2024/01/30 04:55:18;;;;;;;20.42;8.82;;;1.40;99.90;;;;;;5018093;28;20112;-69
2024/01/30 04:57:43;;;;;;;24.88;8.73;;;1.30;99.90;;;;;;5018092;28;20025;-69
2024/01/30 05:00:09;;;;;;;18.38;7.97;;;1.30;99.90;;;;;;5018862;28;20025;-69
2024/01/30 05:02:35;;;;;;;15.43;7.80;;;1.30;99.90;;;;;;5017493;28;20022;-69
2024/01/30 05:05:00;;;;;;;21.08;7.28;;;1.30;99.90;;;;;;5018734;28;20087;-69
2024/01/30 05:07:26;;;;;;;19.60;8.10;;;1.20;99.90;;;;;;5017577;28;20041;-69
2024/01/30 05:09:51;;;;;;;21.88;7.97;;;1.20;99.90;;;;;;5018079;28;20032;-69
2024/01/30 05:12:17;;;;;;;16.50;8.38;;;1.20;99.90;;;;;;5017563;28;20061;-69
2024/01/30 05:14:42;;;;;;;19.45;8.15;;;1.20;99.90;;;;;;5018310;28;20043;-69
2024/01/30 05:17:10;;;;;;;15.65;7.72;;;1.20;99.90;;;;;;5017536;28;20022;-69
2024/01/30 05:19:35;;;;;;;22.67;8.52;;;1.30;99.90;;;;;;5017421;28;20022;-69
2024/01/30 05:22:01;;;;;;;15.95;7.93;;;1.30;99.90;;;;;;5018196;28;20029;-69
2024/01/30 05:24:26;;;;;;;17.17;9.23;;;1.30;99.90;;;;;;5017575;28;20037;-69
2024/01/30 05:26:52;;;;;;;25.20;9.60;;;1.40;99.90;;;;;;5016944;28;20025;-69
2024/01/30 05:29:18;;;;;;;21.83;9.65;;;1.40;99.90;;;;;;5017832;28;20026;-69
2024/01/30 05:31:43;;;;;;;18.17;8.73;;;1.50;99.90;;;;;;5017140;28;20022;-69
2024/01/30 05:34:09;;;;;;;18.90;8.63;;;1.40;99.90;;;;;;5018296;28;20022;-69
2024/01/30 05:36:35;;;;;;;22.05;9.27;;;1.40;99.90;;;;;;5017003;28;20030;-69
2024/01/30 05:39:00;;;;;;;17.70;8.45;;;1.40;99.90;;;;;;5017465;28;20018;-69
2024/01/30 05:41:26;;;;;;;21.58;8.75;;;1.40;99.90;;;;;;5016967;28;20033;-69
2024/01/30 05:43:54;;;;;;;22.00;9.30;;;1.50;99.90;;;;;;5017411;28;20065;-69
2024/01/30 05:46:20;;;;;;;20.98;9.27;;;1.60;99.90;;;;;;5017782;28;20022;-69
2024/01/30 05:48:45;;;;;;;17.85;8.23;;;1.50;99.90;;;;;;5016960;28;20033;-69
2024/01/30 05:51:11;;;;;;;18.50;7.80;;;1.50;99.90;;;;;;5017774;28;20029;-69
2024/01/30 05:53:36;;;;;;;19.27;8.38;;;1.40;99.90;;;;;;5017812;28;20117;-69
2024/01/30 05:56:03;;;;;;;18.15;7.93;;;1.40;99.90;;;;;;5016704;28;20018;-69
2024/01/30 05:58:28;;;;;;;21.38;8.98;;;1.40;99.90;;;;;;5016775;28;20022;-69
2024/01/30 06:00:54;;;;;;;19.40;8.07;;;1.30;99.90;;;;;;5016766;28;20026;-69
2024/01/30 06:03:21;;;;;;;18.13;8.77;;;1.40;99.90;;;;;;5017521;28;20067;-69
2024/01/30 06:05:46;;;;;;;16.20;9.27;;;1.40;99.90;;;;;;5017519;28;20018;-69
2024/01/30 06:08:12;;;;;;;25.83;11.07;;;1.30;99.90;;;;;;5016562;28;20026;-69
2024/01/30 06:10:37;;;;;;;22.08;10.07;;;1.30;99.90;;;;;;5016474;28;20026;-69
2024/01/30 06:13:03;;;;;;;14.05;8.52;;;1.30;99.90;;;;;;5017522;28;20030;-69
2024/01/30 06:15:29;;;;;;;19.63;9.55;;;1.30;99.90;;;;;;5017498;28;20037;-69
2024/01/30 06:17:55;;;;;;;21.33;8.95;;;1.30;99.90;;;;;;5016507;28;20046;-69
2024/01/30 06:20:21;;;;;;;19.02;8.38;;;1.30;99.90;;;;;;5016819;28;20026;-69
2024/01/30 06:22:46;;;;;;;12.60;6.88;;;1.30;99.90;;;;;;5016768;28;20018;-69
2024/01/30 06:25:12;;;;;;;15.13;7.85;;;1.20;99.90;;;;;;5016571;28;20121;-69
2024/01/30 06:27:37;;;;;;;16.70;6.90;;;1.10;99.90;;;;;;5017495;28;20026;-69
2024/01/30 06:30:05;;;;;;;18.55;8.02;;;1.10;99.90;;;;;;5016905;28;20022;-69
2024/01/30 06:32:34;;;;;;;14.98;7.10;;;1.10;99.90;;;;;;5017090;28;20022;-69
2024/01/30 06:35:00;;;;;;;17.55;8.02;;;1.20;99.90;;;;;;5016801;28;20018;-69
2024/01/30 06:37:26;;;;;;;15.60;7.78;;;1.20;99.90;;;;;;5016341;28;20052;-69
2024/01/30 06:39:52;;;;;;;17.80;8.30;;;1.20;99.90;;;;;;5018812;28;20021;-69
2024/01/30 06:42:18;;;;;;;18.48;8.43;;;1.20;99.90;;;;;;5021371;28;20033;-69
2024/01/30 06:44:44;;;;;;;18.88;8.80;;;1.20;99.90;;;;;;5021050;28;20022;-69
2024/01/30 06:47:10;;;;;;;23.95;9.48;;;1.30;99.90;;;;;;5020412;28;20026;-69
2024/01/30 06:49:38;;;;;;;27.27;10.73;;;1.20;99.90;;;;;;5020314;28;20026;-69
2024/01/30 06:52:06;;;;;;;25.40;9.80;;;1.20;99.90;;;;;;5020236;28;20034;-69
2024/01/30 06:54:33;;;;;;;27.88;10.30;;;1.20;99.90;;;;;;5020396;28;20022;-69
2024/01/30 06:56:58;;;;;;;25.92;9.52;;;1.20;99.90;;;;;;5020057;28;20044;-69
2024/01/30 06:59:24;;;;;;;17.80;8.70;;;1.30;99.90;;;;;;5021025;28;20089;-69
2024/01/30 07:01:50;;;;;;;18.55;9.60;;;1.30;99.90;;;;;;5019909;28;20160;-69
2024/01/30 07:04:16;;;;;;;23.00;9.38;;;1.30;99.90;;;;;;5020785;28;20022;-69
2024/01/30 07:06:42;;;;;;;16.98;8.02;;;1.30;99.90;;;;;;5019922;28;20048;-69
2024/01/30 07:09:11;;;;;;;21.38;8.95;;;1.40;99.90;;;;;;5020224;28;20022;-69
2024/01/30 07:11:36;;;;;;;18.48;8.48;;;1.30;99.90;;;;;;5020158;28;20056;-69
2024/01/30 07:14:04;;;;;;;15.90;7.88;;;1.30;99.90;;;;;;5019887;28;20026;-69
2024/01/30 07:16:30;;;;;;;23.05;9.02;;;1.30;99.90;;;;;;5020544;28;20022;-69
2024/01/30 07:18:56;;;;;;;22.48;9.23;;;1.30;99.90;;;;;;5019791;28;20030;-69
2024/01/30 07:21:27;;;;;;;20.38;8.00;;;1.30;99.90;;;;;;5019524;28;20022;-69
2024/01/30 07:23:56;;;;;;;24.60;8.67;;;1.30;99.90;;;;;;5019923;28;20022;-69
2024/01/30 07:26:21;;;;;;;18.98;9.43;;;1.30;99.90;;;;;;5019576;28;20119;-69
2024/01/30 07:28:47;;;;;;;17.10;7.28;;;1.30;99.90;;;;;;5019755;28;20069;-69
2024/01/30 07:31:13;;;;;;;19.85;7.53;;;1.30;99.90;;;;;;5020056;28;20026;-69
2024/01/30 07:33:38;;;;;;;19.95;8.75;;;1.20;99.90;;;;;;5019431;28;20107;-67
2024/01/30 07:36:04;;;;;;;16.58;8.02;;;1.20;99.90;;;;;;5019305;28;20029;-69
2024/01/30 07:38:32;;;;;;;20.63;8.15;;;1.20;99.90;;;;;;5019612;28;20025;-69
2024/01/30 07:40:57;;;;;;;22.27;8.95;;;1.30;99.90;;;;;;5019350;28;20072;-69
2024/01/30 07:43:23;;;;;;;20.60;9.00;;;1.30;99.90;;;;;;5019976;28;20018;-69
2024/01/30 07:45:48;;;;;;;17.05;8.52;;;1.30;99.90;;;;;;5018957;28;20076;-69
2024/01/30 07:48:14;;;;;;;21.63;8.95;;;1.40;99.90;;;;;;5019504;28;20030;-69
2024/01/30 07:50:40;;;;;;;20.77;9.70;;;1.40;99.90;;;;;;5018626;28;20084;-69
2024/01/30 07:53:05;;;;;;;16.17;8.68;;;1.40;99.90;;;;;;5018954;28;20026;-69
2024/01/30 07:55:32;;;;;;;19.63;9.52;;;1.50;99.90;;;;;;5019927;28;20049;-69
2024/01/30 08:01:29;;;;;;;23.38;10.05;;;1.60;99.90;;;;;;5019989;28;20080;-69
2024/01/30 08:03:55;;;;;;;22.88;9.88;;;1.60;99.90;;;;;;5019043;28;20026;-69
2024/01/30 08:06:20;;;;;;;24.17;10.15;;;1.60;99.90;;;;;;5018633;28;20021;-69
2024/01/30 08:08:46;;;;;;;21.75;8.98;;;1.70;99.90;;;;;;5019311;28;20148;-69
2024/01/30 08:11:12;;;;;;;23.50;9.85;;;1.80;99.90;;;;;;5019366;28;20028;-69
2024/01/30 08:13:38;;;;;;;30.67;11.52;;;2.00;99.90;;;;;;5018739;28;20022;-69
2024/01/30 08:16:04;;;;;;;22.60;11.05;;;2.00;99.90;;;;;;5019467;28;20033;-69
2024/01/30 08:18:29;;;;;;;21.90;10.63;;;2.10;99.90;;;;;;5018412;28;20018;-70
2024/01/30 08:20:55;;;;;;;29.60;10.23;;;2.10;99.90;;;;;;5019381;28;20029;-70
2024/01/30 08:23:20;;;;;;;19.10;9.13;;;2.00;99.90;;;;;;5018949;28;20117;-70
2024/01/30 08:25:46;;;;;;;19.70;9.18;;;2.00;99.90;;;;;;5018149;28;20022;-70
2024/01/30 08:28:12;;;;;;;23.10;9.77;;;1.80;99.90;;;;;;5018949;28;20026;-70
2024/01/30 08:30:39;;;;;;;19.30;9.38;;;1.80;99.90;;;;;;5018421;28;20022;-70
2024/01/30 08:33:04;;;;;;;21.70;9.35;;;1.90;99.90;;;;;;5018096;28;20030;-70
2024/01/30 08:35:33;;;;;;;32.00;11.55;;;1.80;99.90;;;;;;5018938;28;20079;-70
2024/01/30 08:37:59;;;;;;;21.25;10.50;;;2.00;99.90;;;;;;5018492;28;20084;-71
2024/01/30 08:40:24;;;;;;;18.73;9.60;;;2.00;99.90;;;;;;5018242;28;20022;-70
2024/01/30 08:42:50;;;;;;;23.75;10.95;;;2.00;99.90;;;;;;5018285;28;20029;-71
2024/01/30 08:45:16;;;;;;;23.05;10.27;;;2.10;99.90;;;;;;5018347;28;20026;-70
2024/01/30 08:47:41;;;;;;;22.85;10.50;;;2.20;99.90;;;;;;5018695;28;20029;-69
2024/01/30 08:50:07;;;;;;;23.55;10.38;;;2.30;99.90;;;;;;5017870;28;20025;-69
2024/01/30 08:52:34;;;;;;;21.30;11.35;;;2.30;99.90;;;;;;5017605;28;20034;-69
2024/01/30 08:54:59;;;;;;;31.10;12.00;;;2.40;99.90;;;;;;5017872;28;20034;-70
2024/01/30 08:57:28;;;;;;;26.23;10.93;;;2.40;99.90;;;;;;5017599;28;20221;-70
2024/01/30 08:59:54;;;;;;;21.63;10.35;;;2.40;99.90;;;;;;5018036;28;20116;-70
2024/01/30 09:02:19;;;;;;;27.20;10.27;;;2.60;99.90;;;;;;5017271;28;20057;-70
2024/01/30 09:04:45;;;;;;;23.35;10.20;;;2.60;99.90;;;;;;5017822;28;20116;-69
2024/01/30 09:07:11;;;;;;;21.63;10.73;;;2.70;99.90;;;;;;5017785;28;20108;-71
2024/01/30 09:09:39;;;;;;;23.13;9.05;;;2.80;99.90;;;;;;5018088;28;20117;-70
2024/01/30 09:12:08;;;;;;;24.25;11.25;;;3.10;99.90;;;;;;5017529;28;20049;-70
2024/01/30 09:14:33;;;;;;;24.02;10.73;;;3.30;99.90;;;;;;5017475;28;20017;-70
2024/01/30 09:16:59;;;;;;;19.63;10.10;;;3.40;99.90;;;;;;5018394;28;20022;-69
2024/01/30 09:19:24;;;;;;;20.88;10.80;;;3.40;99.90;;;;;;5017532;28;20025;-71
2024/01/30 09:21:50;;;;;;;24.92;11.63;;;3.50;99.90;;;;;;5017453;28;20025;-69
2024/01/30 09:24:15;;;;;;;23.33;12.05;;;3.50;99.90;;;;;;5017649;28;20112;-70
2024/01/30 09:26:41;;;;;;;35.30;10.63;;;3.50;99.90;;;;;;5017376;28;20025;-70
2024/01/30 09:29:07;;;;;;;20.52;10.80;;;3.30;99.90;;;;;;5018028;28;20064;-70
2024/01/30 09:31:33;;;;;;;33.42;11.55;;;3.10;99.90;;;;;;5017419;28;20030;-70
2024/01/30 09:33:58;;;;;;;22.05;10.45;;;3.10;99.90;;;;;;5017541;28;20029;-71
2024/01/30 09:36:24;;;;;;;23.95;10.27;;;3.20;99.90;;;;;;5017280;28;20022;-70
2024/01/30 09:38:50;;;;;;;23.98;10.57;;;3.10;99.90;;;;;;5017436;28;20054;-70
2024/01/30 09:41:16;;;;;;;21.45;10.77;;;3.10;99.90;;;;;;5017280;28;20095;-70
2024/01/30 09:43:48;;;;;;;20.75;11.23;;;3.20;99.90;;;;;;5017396;28;20103;-71
2024/01/30 09:46:16;;;;;;;23.08;10.85;;;3.20;99.90;;;;;;5016950;28;20032;-70
2024/01/30 09:48:42;;;;;;;20.20;11.13;;;3.20;99.90;;;;;;5016724;28;20041;-70
2024/01/30 09:51:09;;;;;;;22.20;10.90;;;3.30;99.90;;;;;;5016775;28;20030;-70
2024/01/30 09:53:37;;;;;;;25.42;10.27;;;3.30;99.90;;;;;;5017727;28;20034;-70
2024/01/30 09:56:03;;;;;;;25.60;10.50;;;3.50;99.90;;;;;;5016631;28;20026;-70
2024/01/30 09:58:28;;;;;;;22.83;10.65;;;3.70;99.90;;;;;;5016872;28;20026;-70
2024/01/30 10:00:54;;;;;;;19.98;9.95;;;4.00;99.90;;;;;;5016717;28;20030;-70
2024/01/30 10:03:19;;;;;;;23.73;10.93;;;4.20;99.90;;;;;;5016824;28;20053;-71
2024/01/30 10:05:54;;;;;;;19.65;10.30;;;4.30;99.90;;;;;;5016968;28;20030;-70
2024/01/30 10:08:20;;;;;;;20.52;11.05;;;4.50;99.90;;;;;;5016643;28;20030;-71
2024/01/30 10:10:47;;;;;;;31.52;14.35;;;4.80;99.90;;;;;;5016915;28;20026;-71
2024/01/30 10:13:12;;;;;;;33.17;11.20;;;4.90;99.90;;;;;;5017514;28;20160;-70
2024/01/30 10:15:38;;;;;;;20.92;10.02;;;4.90;99.90;;;;;;5016889;28;20057;-71
2024/01/30 10:18:06;;;;;;;21.58;10.60;;;4.90;99.90;;;;;;5016802;28;20026;-70
2024/01/30 10:20:32;;;;;;;24.77;10.57;;;5.00;99.90;;;;;;5016484;28;20036;-70
2024/01/30 10:22:58;;;;;;;21.42;10.98;;;5.00;99.90;;;;;;5017385;28;20103;-70
2024/01/30 10:25:26;;;;;;;23.75;11.20;;;5.00;99.90;;;;;;5016681;28;20030;-71
2024/01/30 10:27:55;;;;;;;24.60;11.40;;;4.90;99.90;;;;;;5016633;28;20026;-71
2024/01/30 10:30:22;;;;;;;24.13;10.85;;;5.00;99.90;;;;;;5017145;28;20034;-71
2024/01/30 10:32:48;;;;;;;23.50;11.45;;;5.00;99.90;;;;;;5016681;28;20025;-71
2024/01/30 10:35:13;;;;;;;24.58;10.73;;;5.00;99.90;;;;;;5016585;28;20029;-70
2024/01/30 10:37:39;;;;;;;20.38;10.15;;;4.90;99.90;;;;;;5017077;28;20022;-70
2024/01/30 10:40:05;;;;;;;21.90;10.20;;;5.00;99.90;;;;;;5017049;28;20033;-70
2024/01/30 10:42:32;;;;;;;21.60;10.65;;;5.10;99.90;;;;;;5016213;28;20022;-71
2024/01/30 10:45:17;;;;;;;24.42;11.13;;;5.20;99.90;;;;;;5016225;28;20123;-70
2024/01/30 10:47:58;;;;;;;23.13;11.05;;;5.20;99.90;;;;;;5016834;28;20026;-71
2024/01/30 10:50:25;;;;;;;16.57;9.80;;;5.20;99.90;;;;;;5016885;28;20064;-70
2024/01/30 10:52:52;;;;;;;20.27;10.65;;;5.20;99.90;;;;;;5016967;28;20297;-71
2024/01/30 10:55:18;;;;;;;20.95;11.65;;;5.30;99.90;;;;;;5016220;28;20054;-71
2024/01/30 10:57:44;;;;;;;19.90;10.23;;;5.30;99.90;;;;;;5016913;28;20022;-70
2024/01/30 11:00:15;;;;;;;18.77;9.70;;;5.30;99.90;;;;;;5016702;28;20018;-70
2024/01/30 11:02:43;;;;;;;21.38;10.57;;;5.40;99.90;;;;;;5016408;28;20045;-70
2024/01/30 11:05:09;;;;;;;22.13;10.80;;;5.40;99.90;;;;;;5016309;28;20188;-70
2024/01/30 11:07:35;;;;;;;20.77;9.80;;;5.50;99.90;;;;;;5016104;28;20069;-71
2024/01/30 11:10:05;;;;;;;21.35;11.27;;;5.70;99.90;;;;;;5016189;28;20022;-71
2024/01/30 11:12:33;;;;;;;21.88;10.10;;;5.80;99.90;;;;;;5016365;28;20116;-70
2024/01/30 11:15:06;;;;;;;19.35;10.23;;;5.70;99.90;;;;;;5016784;28;20029;-70
2024/01/30 11:17:53;;;;;;;22.23;10.15;;;5.70;99.90;;;;;;5016671;28;20030;-70
2024/01/30 11:20:26;;;;;;;23.20;10.30;;;5.70;99.90;;;;;;5016336;28;20203;-70
2024/01/30 11:22:52;;;;;;;17.65;10.35;;;5.70;99.90;;;;;;5016704;28;20033;-70
2024/01/30 11:25:20;;;;;;;22.88;11.10;;;5.70;99.90;;;;;;5017319;28;20041;-71
2024/01/30 11:27:49;;;;;;;19.20;10.70;;;5.90;99.90;;;;;;5019558;28;20141;-71
2024/01/30 11:30:25;;;;;;;19.77;10.82;;;6.10;99.90;;;;;;5019766;28;20030;-70
2024/01/30 11:33:05;;;;;;;22.38;10.85;;;6.20;99.90;;;;;;5020610;28;20037;-71
2024/01/30 11:35:32;;;;;;;27.02;11.50;;;6.30;99.90;;;;;;5019955;28;20021;-71
2024/01/30 11:37:59;;;;;;;22.02;10.85;;;6.50;99.90;;;;;;5019610;28;20026;-71
2024/01/30 11:40:30;;;;;;;19.80;10.73;;;6.70;99.90;;;;;;5019768;28;20061;-71
2024/01/30 11:42:58;;;;;;;30.07;12.13;;;7.00;99.90;;;;;;5019601;28;20036;-70
2024/01/30 11:45:23;;;;;;;27.20;11.68;;;6.80;99.90;;;;;;5019636;28;20273;-70
2024/01/30 11:47:49;;;;;;;22.40;11.43;;;6.80;99.90;;;;;;5019900;28;20128;-71
2024/01/30 11:50:15;;;;;;;21.30;11.25;;;6.90;99.90;;;;;;5019252;28;20083;-71
2024/01/30 11:52:41;;;;;;;20.90;11.90;;;6.70;99.90;;;;;;5019478;28;20163;-71
2024/01/30 11:55:08;;;;;;;25.08;11.25;;;6.80;99.90;;;;;;5019174;28;20025;-71
2024/01/30 11:57:35;;;;;;;21.90;10.95;;;6.70;99.90;;;;;;5019110;28;20175;-71
2024/01/30 12:00:01;;;;;;;25.02;11.70;;;6.90;99.90;;;;;;5019511;28;20018;-71
2024/01/30 12:02:26;;;;;;;20.65;10.65;;;7.10;99.90;;;;;;5018858;28;20028;-71
2024/01/30 12:04:52;;;;;;;23.60;11.85;;;7.40;99.90;;;;;;5019891;28;20033;-71
2024/01/30 12:07:18;;;;;;;22.05;10.30;;;7.40;99.90;;;;;;5019744;28;20085;-71
2024/01/30 12:09:53;;;;;;;22.63;11.43;;;7.50;99.90;;;;;;5019589;28;20026;-71
2024/01/30 12:12:18;;;;;;;21.90;11.43;;;7.70;99.90;;;;;;5019386;28;20022;-70
2024/01/30 12:14:44;;;;;;;25.85;10.50;;;7.90;99.90;;;;;;5018532;28;20074;-71
2024/01/30 12:17:10;;;;;;;19.42;10.50;;;7.90;99.90;;;;;;5018780;28;20025;-71
2024/01/30 12:19:36;;;;;;;21.45;11.48;;;7.90;99.90;;;;;;5018662;28;20097;-71
2024/01/30 12:22:02;;;;;;;21.35;12.30;;;8.00;99.90;;;;;;5018504;28;20053;-71
2024/01/30 12:24:30;;;;;;;27.52;10.90;;;8.00;99.90;;;;;;5018952;28;20021;-71
2024/01/30 12:27:00;;;;;;;18.42;10.90;;;8.10;99.90;;;;;;5018427;28;20033;-71
2024/01/30 12:29:25;;;;;;;22.55;10.35;;;8.00;99.90;;;;;;5019272;28;20030;-71
2024/01/30 12:31:54;;;;;;;21.88;11.55;;;8.10;99.90;;;;;;5018607;28;20071;-71
2024/01/30 12:34:20;;;;;;;24.33;12.05;;;8.20;99.90;;;;;;5019103;28;20037;-71
2024/01/30 12:36:48;;;;;;;21.65;11.35;;;8.20;99.90;;;;;;5018253;28;20026;-71
2024/01/30 12:39:14;;;;;;;25.58;11.10;;;8.00;99.90;;;;;;5018902;28;20026;-71
2024/01/30 12:41:40;;;;;;;20.45;10.80;;;8.00;99.90;;;;;;5019165;28;20029;-71